Time;durP1;ratioP1;P1;durP2;ratioP2;P2;SDS_P1;SDS_P2;PMS_P1;PMS_P2;Temp;Humidity;BMP_temperature;BMP_pressure;BME280_temperature;BME280_humidity;BME280_pressure;Samples;Min_cycle;Max_cycle;Signal;HPM_P1;HPM_P2
2021/04/04 00:02:18;;;;;;;27.73;9.90;;;3.70;99.90;;;;;;5070583;28;20259;-75
2021/04/04 00:04:44;;;;;;;22.03;9.67;;;3.70;99.90;;;;;;5070882;28;20609;-74
2021/04/04 00:07:11;;;;;;;21.17;9.33;;;3.70;99.90;;;;;;5071160;28;20306;-74
2021/04/04 00:09:39;;;;;;;20.10;9.77;;;3.60;99.90;;;;;;5070809;28;20281;-74
2021/04/04 00:12:07;;;;;;;23.83;10.03;;;3.60;99.90;;;;;;5071368;28;20217;-73
2021/04/04 00:14:34;;;;;;;22.73;9.83;;;3.60;99.90;;;;;;5071069;28;20285;-74
2021/04/04 00:17:00;;;;;;;23.60;10.47;;;3.40;99.90;;;;;;5071562;28;20248;-74
2021/04/04 00:19:27;;;;;;;24.10;10.50;;;3.40;99.90;;;;;;5070970;28;20285;-74
2021/04/04 00:21:53;;;;;;;21.40;10.57;;;3.30;99.90;;;;;;5071102;28;20316;-74
2021/04/04 00:24:20;;;;;;;23.93;10.30;;;3.40;99.90;;;;;;5071135;28;20406;-75
2021/04/04 00:26:47;;;;;;;24.67;10.23;;;3.40;99.90;;;;;;5070095;28;20733;-74
2021/04/04 00:29:13;;;;;;;24.60;10.03;;;3.30;99.90;;;;;;5071578;28;20236;-75
2021/04/04 00:31:40;;;;;;;22.90;10.23;;;3.30;99.90;;;;;;5072770;28;20232;-74
2021/04/04 00:34:07;;;;;;;24.80;10.33;;;3.20;99.90;;;;;;5074912;28;20293;-75
2021/04/04 00:36:33;;;;;;;22.63;10.07;;;3.30;99.90;;;;;;5090491;28;20293;-75
2021/04/04 00:39:00;;;;;;;23.17;10.33;;;3.30;99.90;;;;;;5075306;28;20287;-74
2021/04/04 00:41:26;;;;;;;22.83;10.17;;;3.20;99.90;;;;;;5074923;28;20729;-74
2021/04/04 00:43:53;;;;;;;24.73;10.47;;;3.10;99.90;;;;;;5075282;28;20293;-75
2021/04/04 00:46:20;;;;;;;23.87;10.40;;;2.90;99.90;;;;;;5075250;28;20228;-74
2021/04/04 00:48:46;;;;;;;24.60;10.73;;;2.80;99.90;;;;;;5073810;28;20229;-74
2021/04/04 00:51:12;;;;;;;25.23;10.57;;;2.80;99.90;;;;;;5075106;28;20244;-74
2021/04/04 00:53:40;;;;;;;23.57;10.23;;;2.80;99.90;;;;;;5073828;28;20231;-74
2021/04/04 00:56:06;;;;;;;25.17;10.80;;;2.90;99.90;;;;;;5074891;28;20729;-75
2021/04/04 00:58:33;;;;;;;28.07;10.80;;;2.90;99.90;;;;;;5074313;28;20289;-75
2021/04/04 01:01:00;;;;;;;20.43;10.60;;;2.90;99.90;;;;;;5074986;28;20296;-74
2021/04/04 01:03:27;;;;;;;23.87;11.23;;;2.90;99.90;;;;;;5074289;28;20268;-74
2021/04/04 01:05:55;;;;;;;25.37;10.87;;;2.90;99.90;;;;;;5074939;28;20237;-75
2021/04/04 01:08:22;;;;;;;26.37;10.70;;;3.00;99.90;;;;;;5074200;28;20245;-74
2021/04/04 01:10:49;;;;;;;27.57;11.93;;;3.00;99.90;;;;;;5074537;28;20281;-74
2021/04/04 01:13:20;;;;;;;20.53;9.57;;;3.10;99.90;;;;;;5074033;28;20763;-74
2021/04/04 01:15:54;;;;;;;23.27;10.07;;;3.20;99.90;;;;;;5074280;28;20283;-75
2021/04/04 01:18:28;;;;;;;23.67;10.50;;;3.10;99.90;;;;;;5073473;28;20284;-75
2021/04/04 01:20:57;;;;;;;27.20;10.67;;;3.10;99.90;;;;;;5089540;28;20320;-74
2021/04/04 01:23:51;;;;;;;20.30;10.23;;;3.00;99.90;;;;;;5074013;28;20239;-75
2021/04/04 01:26:29;;;;;;;22.97;10.27;;;2.90;99.90;;;;;;5056850;28;20226;-74
2021/04/04 01:28:58;;;;;;;23.07;10.87;;;2.80;99.90;;;;;;5073785;28;20236;-75
2021/04/04 01:31:25;;;;;;;25.17;10.70;;;2.60;99.90;;;;;;5073486;28;20206;-74
2021/04/04 01:33:55;;;;;;;24.63;11.10;;;2.50;99.90;;;;;;5073940;28;20239;-74
2021/04/04 01:36:23;;;;;;;21.90;9.70;;;2.50;99.90;;;;;;5074090;28;20295;-75
2021/04/04 01:38:53;;;;;;;24.77;10.90;;;2.40;99.90;;;;;;5073211;28;20304;-75
2021/04/04 01:41:25;;;;;;;24.20;10.57;;;2.30;99.90;;;;;;5055734;28;20298;-74
2021/04/04 01:43:56;;;;;;;23.27;11.10;;;2.30;99.90;;;;;;5073789;28;20239;-75
2021/04/04 01:46:24;;;;;;;21.33;11.03;;;2.30;99.90;;;;;;5072112;28;20287;-74
2021/04/04 01:48:52;;;;;;;26.53;10.93;;;2.30;99.90;;;;;;5073826;28;20201;-75
2021/04/04 01:51:20;;;;;;;24.83;10.83;;;2.40;99.90;;;;;;5073920;28;20604;-75
2021/04/04 01:53:48;;;;;;;26.93;11.37;;;2.40;99.90;;;;;;5073609;28;20234;-75
2021/04/04 01:56:15;;;;;;;23.17;10.90;;;2.50;99.90;;;;;;5073290;28;20301;-75
2021/04/04 01:58:43;;;;;;;28.63;10.87;;;2.50;99.90;;;;;;5073693;28;20604;-75
2021/04/04 02:01:12;;;;;;;24.10;10.87;;;2.40;99.90;;;;;;5073099;28;20932;-75
2021/04/04 02:03:40;;;;;;;26.63;10.57;;;2.40;99.90;;;;;;5073714;28;20225;-75
2021/04/04 02:06:07;;;;;;;23.33;11.03;;;2.40;99.90;;;;;;5073203;28;20354;-75
2021/04/04 02:08:35;;;;;;;24.43;11.77;;;2.30;99.90;;;;;;5073670;28;20294;-74
2021/04/04 02:11:02;;;;;;;24.67;11.37;;;2.30;99.90;;;;;;5073172;28;20202;-75
2021/04/04 02:13:30;;;;;;;26.87;12.10;;;2.30;99.90;;;;;;5064683;28;20672;-74
2021/04/04 02:15:59;;;;;;;26.47;11.10;;;2.40;99.90;;;;;;5068236;28;20258;-75
2021/04/04 02:18:26;;;;;;;28.37;11.90;;;2.30;99.90;;;;;;5072017;28;20214;-75
2021/04/04 02:20:55;;;;;;;25.77;11.03;;;2.20;99.90;;;;;;5072888;28;20291;-75
2021/04/04 02:23:24;;;;;;;23.00;10.97;;;2.20;99.90;;;;;;5072896;28;20326;-75
2021/04/04 02:25:53;;;;;;;23.37;10.97;;;2.30;99.90;;;;;;5073235;28;20196;-75
2021/04/04 02:28:19;;;;;;;25.03;11.30;;;2.20;99.90;;;;;;5073362;28;20895;-75
2021/04/04 02:30:45;;;;;;;23.40;10.70;;;2.20;99.90;;;;;;5072759;28;20300;-75
2021/04/04 02:33:19;;;;;;;24.57;11.10;;;2.10;99.90;;;;;;5072393;28;20603;-75
2021/04/04 02:35:49;;;;;;;24.77;11.33;;;2.10;99.90;;;;;;5072861;28;20200;-75
2021/04/04 02:38:22;;;;;;;24.00;11.17;;;2.10;99.90;;;;;;5071850;28;20292;-75
2021/04/04 02:40:49;;;;;;;24.70;11.37;;;2.10;99.90;;;;;;5066688;28;20239;-75
2021/04/04 02:43:17;;;;;;;23.00;10.63;;;2.20;99.90;;;;;;5071942;28;20228;-75
2021/04/04 02:45:45;;;;;;;21.50;10.93;;;2.20;99.90;;;;;;5071556;28;20291;-75
2021/04/04 02:48:17;;;;;;;22.13;11.00;;;2.20;99.90;;;;;;5072731;28;20360;-75
2021/04/04 02:50:48;;;;;;;22.87;10.47;;;2.20;99.90;;;;;;5074029;28;20203;-75
2021/04/04 02:53:16;;;;;;;25.73;11.27;;;2.10;99.90;;;;;;5072392;28;20200;-76
2021/04/04 02:55:46;;;;;;;21.13;10.50;;;2.10;99.90;;;;;;5071985;28;20302;-75
2021/04/04 02:58:13;;;;;;;21.57;10.43;;;2.00;99.90;;;;;;5072199;28;20302;-75
2021/04/04 03:00:41;;;;;;;25.47;11.20;;;2.00;99.90;;;;;;5072477;28;20287;-75
2021/04/04 03:03:10;;;;;;;28.13;11.33;;;2.00;99.90;;;;;;5072181;28;20307;-76
2021/04/04 03:05:38;;;;;;;26.17;10.80;;;2.00;99.90;;;;;;5072512;28;20261;-75
2021/04/04 03:08:07;;;;;;;28.13;10.97;;;2.00;99.90;;;;;;5072361;28;20289;-75
2021/04/04 03:10:36;;;;;;;27.50;10.57;;;2.10;99.90;;;;;;5072118;28;20199;-75
2021/04/04 03:13:03;;;;;;;26.60;11.17;;;2.10;99.90;;;;;;5071346;28;20312;-75
2021/04/04 03:15:30;;;;;;;29.30;10.77;;;2.10;99.90;;;;;;5071379;28;20741;-75
2021/04/04 03:17:58;;;;;;;32.10;10.90;;;2.10;99.90;;;;;;5071112;28;20301;-75
2021/04/04 03:20:27;;;;;;;18.80;10.03;;;2.20;99.90;;;;;;5072143;28;20214;-75
2021/04/04 03:22:56;;;;;;;21.13;9.97;;;2.20;99.90;;;;;;5071970;28;20325;-75
2021/04/04 03:25:22;;;;;;;27.53;11.17;;;2.20;99.90;;;;;;5070812;28;20296;-75
2021/04/04 03:27:51;;;;;;;26.17;10.73;;;2.20;99.90;;;;;;5071775;28;20703;-75
2021/04/04 03:30:42;;;;;;;31.00;10.87;;;2.10;99.90;;;;;;5071759;28;20247;-75
2021/04/04 03:33:12;;;;;;;29.07;11.10;;;2.10;99.90;;;;;;5072276;28;20202;-75
2021/04/04 03:35:39;;;;;;;23.37;10.23;;;2.10;99.90;;;;;;5071456;28;20349;-75
2021/04/04 03:38:08;;;;;;;20.53;10.13;;;2.20;99.90;;;;;;5071150;28;20294;-75
2021/04/04 03:40:36;;;;;;;21.20;9.33;;;2.20;99.90;;;;;;5071163;28;20278;-75
2021/04/04 03:43:08;;;;;;;20.53;10.63;;;2.20;99.90;;;;;;5070201;28;20223;-75
2021/04/04 03:45:35;;;;;;;22.67;10.10;;;2.10;99.90;;;;;;5071791;28;20256;-75
2021/04/04 03:48:03;;;;;;;23.57;10.07;;;2.20;99.90;;;;;;5071849;28;20292;-75
2021/04/04 03:50:31;;;;;;;22.87;9.63;;;2.10;99.90;;;;;;5070355;28;20284;-75
2021/04/04 03:52:59;;;;;;;28.37;10.23;;;2.20;99.90;;;;;;5071472;28;20261;-75
2021/04/04 03:55:28;;;;;;;21.03;9.20;;;2.20;99.90;;;;;;5071642;28;20341;-75
2021/04/04 03:57:56;;;;;;;28.30;10.37;;;2.20;99.90;;;;;;5071536;28;20338;-75
2021/04/04 04:00:25;;;;;;;23.10;10.23;;;2.20;99.90;;;;;;5071544;28;20237;-75
2021/04/04 04:02:53;;;;;;;26.50;9.90;;;2.20;99.90;;;;;;5071381;28;20313;-75
2021/04/04 04:05:23;;;;;;;22.03;8.97;;;2.30;99.90;;;;;;5071457;28;20577;-75
2021/04/04 04:07:50;;;;;;;24.03;9.53;;;2.30;99.90;;;;;;5074703;28;20284;-75
2021/04/04 04:10:18;;;;;;;26.27;10.60;;;2.30;99.90;;;;;;5075241;28;20290;-75
2021/04/04 04:12:47;;;;;;;26.03;9.67;;;2.30;99.90;;;;;;5090756;28;20302;-75
2021/04/04 04:15:14;;;;;;;26.20;9.50;;;2.30;99.90;;;;;;5075457;28;20616;-75
2021/04/04 04:17:44;;;;;;;23.67;9.60;;;2.30;99.90;;;;;;5075265;28;20657;-75
2021/04/04 04:20:12;;;;;;;29.07;9.23;;;2.20;99.90;;;;;;5075479;28;20230;-75
2021/04/04 04:22:40;;;;;;;21.47;9.47;;;2.20;99.90;;;;;;5074776;28;20575;-75
2021/04/04 04:25:07;;;;;;;23.10;9.77;;;2.20;99.90;;;;;;5074866;28;20239;-75
2021/04/04 04:27:35;;;;;;;23.43;9.47;;;2.20;99.90;;;;;;5075259;28;20242;-75
2021/04/04 04:30:05;;;;;;;25.47;9.50;;;2.20;99.90;;;;;;5075269;28;20286;-75
2021/04/04 04:32:35;;;;;;;22.80;10.10;;;2.20;99.90;;;;;;5075370;28;20283;-75
2021/04/04 04:35:03;;;;;;;21.80;9.50;;;2.20;99.90;;;;;;5075387;28;20320;-75
2021/04/04 04:37:32;;;;;;;22.10;9.50;;;2.20;99.90;;;;;;5074510;28;20290;-75
2021/04/04 04:39:59;;;;;;;29.37;10.23;;;2.20;99.90;;;;;;5074686;28;20299;-75
2021/04/04 04:42:27;;;;;;;25.40;9.40;;;2.20;99.90;;;;;;5075156;28;20227;-75
2021/04/04 04:44:55;;;;;;;24.57;9.53;;;2.10;99.90;;;;;;5074776;28;20294;-75
2021/04/04 04:47:22;;;;;;;22.97;9.93;;;2.10;99.90;;;;;;5074238;28;20204;-75
2021/04/04 04:49:49;;;;;;;31.50;9.73;;;2.00;99.90;;;;;;5074447;28;20287;-75
2021/04/04 04:52:16;;;;;;;25.07;9.63;;;2.00;99.90;;;;;;5074799;28;20288;-75
2021/04/04 04:54:43;;;;;;;30.67;10.57;;;2.00;99.90;;;;;;5073339;28;20290;-75
2021/04/04 04:57:10;;;;;;;24.27;9.40;;;2.00;99.90;;;;;;5075006;28;20227;-75
2021/04/04 04:59:38;;;;;;;22.37;9.80;;;2.00;99.90;;;;;;5075154;28;20524;-75
2021/04/04 05:02:07;;;;;;;24.73;9.67;;;2.00;99.90;;;;;;5074373;28;20654;-76
2021/04/04 05:04:34;;;;;;;27.63;9.93;;;1.90;99.90;;;;;;5074335;28;20283;-75
2021/04/04 05:07:01;;;;;;;28.27;9.90;;;2.00;99.90;;;;;;5074686;28;20294;-75
2021/04/04 05:09:32;;;;;;;22.40;9.63;;;2.00;99.90;;;;;;5089217;28;20290;-75
2021/04/04 05:12:00;;;;;;;21.97;9.50;;;1.90;99.90;;;;;;5074070;28;20701;-75
2021/04/04 05:14:26;;;;;;;25.37;9.93;;;1.90;99.90;;;;;;5074631;28;20312;-75
2021/04/04 05:16:54;;;;;;;30.13;9.83;;;1.80;99.90;;;;;;5072429;28;20368;-75
2021/04/04 05:19:22;;;;;;;26.50;10.73;;;1.70;99.90;;;;;;5074226;28;20238;-75
2021/04/04 05:21:49;;;;;;;19.73;9.47;;;1.80;99.90;;;;;;5074092;28;20352;-75
2021/04/04 05:24:16;;;;;;;26.30;9.63;;;1.80;99.90;;;;;;5073079;28;20223;-75
2021/04/04 05:26:46;;;;;;;24.53;10.27;;;1.80;99.90;;;;;;5074514;28;20618;-75
2021/04/04 05:29:14;;;;;;;24.50;9.13;;;1.70;99.90;;;;;;5074244;28;20430;-75
2021/04/04 05:31:49;;;;;;;24.17;10.27;;;1.60;99.90;;;;;;5074460;28;20281;-75
2021/04/04 05:34:17;;;;;;;25.97;9.23;;;1.70;99.90;;;;;;5073849;28;20238;-75
2021/04/04 05:36:48;;;;;;;19.93;9.43;;;1.60;99.90;;;;;;5074151;28;20290;-75
2021/04/04 05:39:17;;;;;;;24.70;10.07;;;1.60;99.90;;;;;;5073364;28;20278;-75
2021/04/04 05:41:48;;;;;;;22.77;9.53;;;1.50;99.90;;;;;;5057738;28;20195;-75
2021/04/04 05:44:18;;;;;;;22.27;9.70;;;1.50;99.90;;;;;;5073514;28;20202;-75
2021/04/04 05:46:50;;;;;;;26.23;10.27;;;1.60;99.90;;;;;;5072974;28;20295;-75
2021/04/04 05:49:19;;;;;;;30.63;10.30;;;1.70;99.90;;;;;;5073337;28;20298;-75
2021/04/04 05:51:55;;;;;;;28.67;10.03;;;1.70;99.90;;;;;;5073214;28;20280;-75
2021/04/04 05:54:54;;;;;;;24.27;8.83;;;1.70;99.90;;;;;;5073932;28;20199;-76
2021/04/04 05:57:27;;;;;;;22.10;9.20;;;1.60;99.90;;;;;;5057659;28;20254;-75
2021/04/04 05:59:58;;;;;;;25.87;10.20;;;1.60;99.90;;;;;;5073244;28;20203;-75
2021/04/04 06:03:28;;;;;;;26.87;8.97;;;1.70;99.90;;;;;;5073085;28;20278;-75
2021/04/04 06:06:30;;;;;;;20.97;9.17;;;1.80;99.90;;;;;;5073465;28;20300;-75
2021/04/04 06:09:14;;;;;;;21.80;9.07;;;2.00;99.90;;;;;;5073689;28;20283;-75
2021/04/04 06:11:53;;;;;;;23.03;9.40;;;2.20;99.90;;;;;;5073428;28;20339;-75
2021/04/04 06:14:29;;;;;;;24.17;9.20;;;2.30;99.90;;;;;;5067814;28;20195;-75
2021/04/04 06:16:59;;;;;;;21.57;8.97;;;2.50;99.90;;;;;;5073424;28;20675;-75
2021/04/04 06:19:36;;;;;;;23.83;9.30;;;2.60;99.90;;;;;;5073172;28;20207;-75
2021/04/04 06:22:10;;;;;;;23.97;9.50;;;2.70;99.90;;;;;;5072420;28;20209;-75
2021/04/04 06:24:44;;;;;;;20.17;9.73;;;2.80;99.90;;;;;;5072484;28;20227;-75
2021/04/04 06:27:19;;;;;;;25.33;9.13;;;3.00;99.90;;;;;;5072772;28;20284;-75
2021/04/04 06:30:04;;;;;;;22.50;9.20;;;3.10;99.90;;;;;;5071609;28;20195;-76
2021/04/04 06:32:59;;;;;;;18.80;8.57;;;3.40;99.90;;;;;;5072707;28;20286;-76
2021/04/04 06:35:37;;;;;;;15.60;8.63;;;3.50;99.90;;;;;;5072487;28;20855;-75
2021/04/04 06:38:14;;;;;;;21.63;8.70;;;3.80;99.90;;;;;;5072632;28;20242;-75
2021/04/04 06:40:47;;;;;;;23.33;8.53;;;4.20;99.90;;;;;;5072926;28;20692;-75
2021/04/04 06:43:25;;;;;;;27.03;8.80;;;4.50;99.90;;;;;;5072566;28;20226;-75
2021/04/04 06:46:14;;;;;;;17.03;8.30;;;5.20;99.90;;;;;;5073059;28;20224;-75
2021/04/04 06:48:55;;;;;;;18.33;8.27;;;5.80;99.90;;;;;;5072084;28;20676;-76
2021/04/04 06:51:31;;;;;;;22.47;8.00;;;5.90;99.90;;;;;;5052438;28;20199;-76
2021/04/04 06:54:23;;;;;;;17.20;7.67;;;6.50;99.90;;;;;;5052695;28;20290;-75
2021/04/04 06:57:05;;;;;;;20.27;8.23;;;6.70;99.90;;;;;;5052509;28;20202;-75
2021/04/04 06:59:41;;;;;;;16.30;7.47;;;7.30;99.90;;;;;;5055540;28;20748;-75
2021/04/04 07:02:09;;;;;;;19.30;7.73;;;7.80;99.90;;;;;;5052656;28;20225;-75
2021/04/04 07:04:40;;;;;;;19.70;8.00;;;7.10;99.90;;;;;;5051748;28;20727;-76
2021/04/04 07:07:58;;;;;;;17.60;7.60;;;7.80;99.90;;;;;;5059336;28;20294;-76
2021/04/04 07:10:50;;;;;;;18.53;7.40;;;7.70;99.90;;;;;;5067053;28;20743;-75
2021/04/04 07:13:29;;;;;;;15.60;7.27;;;8.50;99.90;;;;;;5069850;28;20223;-76
2021/04/04 07:16:33;;;;;;;21.83;7.70;;;8.60;99.90;;;;;;5072013;28;20284;-75
2021/04/04 07:19:26;;;;;;;18.23;7.23;;;9.00;99.90;;;;;;5071889;28;20676;-76
2021/04/04 07:22:00;;;;;;;15.10;7.07;;;9.40;99.90;;;;;;5071621;28;20632;-76
2021/04/04 07:24:40;;;;;;;16.70;7.20;;;9.00;99.90;;;;;;5071996;28;20271;-76
2021/04/04 07:27:15;;;;;;;17.60;7.73;;;10.00;99.90;;;;;;5071687;28;20195;-76
2021/04/04 07:33:17;;;;;;;20.10;7.67;;;10.00;99.90;;;;;;5108655;27;20599;-75
2021/04/04 07:36:13;;;;;;;16.43;6.90;;;10.40;99.90;;;;;;5098774;28;20285;-76
2021/04/04 07:38:46;;;;;;;21.93;7.90;;;10.70;99.90;;;;;;5089232;28;20234;-75
2021/04/04 07:41:20;;;;;;;15.23;7.80;;;10.50;99.90;;;;;;5088705;28;20646;-74
2021/04/04 07:43:58;;;;;;;15.30;7.70;;;10.50;99.90;;;;;;5083729;28;20657;-75
2021/04/04 07:46:32;;;;;;;17.57;7.40;;;11.00;99.90;;;;;;5109469;28;20223;-74
2021/04/04 07:49:12;;;;;;;16.53;7.60;;;10.80;99.90;;;;;;5098622;28;20210;-74
2021/04/04 07:51:41;;;;;;;16.80;7.80;;;11.10;99.90;;;;;;5088928;28;20218;-74
2021/04/04 07:54:12;;;;;;;18.10;7.70;;;11.80;99.90;;;;;;5088765;28;20614;-74
2021/04/04 07:56:43;;;;;;;18.70;8.70;;;12.40;99.90;;;;;;5088561;28;20229;-75
2021/04/04 07:59:19;;;;;;;17.70;7.20;;;12.00;99.90;;;;;;5088506;28;20236;-75
2021/04/04 08:01:52;;;;;;;17.03;7.63;;;12.70;99.90;;;;;;5088484;28;20277;-75
2021/04/04 08:04:27;;;;;;;17.30;7.37;;;12.70;99.90;;;;;;5087829;28;20639;-75
2021/04/04 08:06:58;;;;;;;15.27;7.77;;;13.40;99.90;;;;;;5088665;28;20556;-76
2021/04/04 08:09:31;;;;;;;16.73;8.40;;;12.60;99.90;;;;;;5085574;28;20230;-75
2021/04/04 08:12:10;;;;;;;16.13;8.33;;;12.20;99.90;;;;;;5082053;28;20222;-75
2021/04/04 08:14:51;;;;;;;17.30;8.27;;;12.30;99.90;;;;;;5067197;28;20649;-76
2021/04/04 08:17:17;;;;;;;14.60;8.32;;;13.20;99.90;;;;;;5065552;28;20686;-76
2021/04/04 08:19:57;;;;;;;15.35;7.78;;;13.10;99.90;;;;;;5088207;28;20241;-76
2021/04/04 08:22:30;;;;;;;16.87;8.27;;;12.60;99.90;;;;;;5076407;28;20720;-76
2021/04/04 08:25:01;;;;;;;18.73;8.77;;;12.00;99.90;;;;;;5067969;28;20686;-76
2021/04/04 08:27:32;;;;;;;17.80;8.43;;;12.50;99.90;;;;;;5074316;28;20228;-76
2021/04/04 08:30:08;;;;;;;14.57;7.97;;;12.60;99.90;;;;;;5054597;28;20213;-76
2021/04/04 08:32:39;;;;;;;17.30;8.83;;;12.60;99.90;;;;;;5050221;28;20239;-76
2021/04/04 08:35:09;;;;;;;18.00;8.67;;;13.40;99.90;;;;;;5060770;28;20261;-76
2021/04/04 08:37:40;;;;;;;19.70;8.77;;;13.00;99.90;;;;;;5059356;28;20734;-75
2021/04/04 08:40:12;;;;;;;20.47;9.03;;;13.70;99.90;;;;;;5065644;28;20207;-76
2021/04/04 08:42:39;;;;;;;15.13;8.00;;;14.10;99.90;;;;;;5060135;28;20294;-76
2021/04/04 08:45:10;;;;;;;15.17;8.97;;;14.90;99.90;;;;;;5045784;28;20265;-76
2021/04/04 08:47:38;;;;;;;18.20;9.57;;;13.40;99.90;;;;;;5048560;28;20238;-76
2021/04/04 08:50:08;;;;;;;18.50;8.67;;;13.30;99.90;;;;;;5049712;28;20748;-76
2021/04/04 08:52:38;;;;;;;16.70;9.23;;;14.40;99.90;;;;;;5053366;28;20310;-76
2021/04/04 08:55:07;;;;;;;17.23;9.40;;;14.40;99.90;;;;;;5054708;28;20287;-76
2021/04/04 08:57:37;;;;;;;18.33;9.63;;;13.90;99.90;;;;;;5054044;28;20282;-75
2021/04/04 09:00:07;;;;;;;16.43;8.80;;;14.80;99.90;;;;;;5049298;28;20295;-77
2021/04/04 09:02:39;;;;;;;17.48;9.35;;;15.20;99.90;;;;;;5037412;28;20275;-73
2021/04/04 09:05:08;;;;;;;20.23;9.47;;;15.30;99.90;;;;;;5042387;28;20304;-77
2021/04/04 09:07:40;;;;;;;19.80;9.40;;;15.40;99.90;;;;;;5042013;28;20201;-76
2021/04/04 09:10:10;;;;;;;18.63;8.87;;;14.70;99.90;;;;;;5041147;28;20200;-76
2021/04/04 09:12:39;;;;;;;17.87;9.07;;;15.20;99.90;;;;;;5055736;28;20255;-75
2021/04/04 09:15:07;;;;;;;18.10;9.43;;;14.90;99.90;;;;;;5043698;28;20207;-77
2021/04/04 09:17:34;;;;;;;18.73;10.07;;;15.00;99.90;;;;;;5046324;28;20624;-76
2021/04/04 09:20:02;;;;;;;17.30;9.70;;;14.40;99.90;;;;;;5048563;28;20315;-76
2021/04/04 09:22:31;;;;;;;20.23;9.53;;;15.00;99.90;;;;;;5050818;28;20549;-75
2021/04/04 09:25:02;;;;;;;15.45;9.32;;;16.20;99.90;;;;;;5046174;28;20330;-76
2021/04/04 09:27:34;;;;;;;16.42;9.60;;;16.70;99.90;;;;;;5043955;28;20291;-76
2021/04/04 09:30:02;;;;;;;17.08;9.68;;;16.20;99.90;;;;;;5040573;28;20238;-76
2021/04/04 09:32:35;;;;;;;18.02;9.38;;;16.10;99.90;;;;;;5038675;28;20243;-76
2021/04/04 09:35:03;;;;;;;18.02;9.90;;;16.30;99.90;;;;;;5045369;28;20338;-75
2021/04/04 09:37:31;;;;;;;19.65;9.45;;;16.30;99.90;;;;;;5043961;28;20291;-75
2021/04/04 09:39:59;;;;;;;19.02;9.88;;;16.40;99.90;;;;;;5049241;28;20784;-76
2021/04/04 09:42:30;;;;;;;17.13;9.70;;;16.20;99.90;;;;;;5045600;28;20246;-75
2021/04/04 09:45:15;;;;;;;17.50;9.82;;;17.00;99.90;;;;;;5044054;28;20339;-77
2021/04/04 09:47:42;;;;;;;18.85;9.65;;;16.30;99.90;;;;;;5045790;28;20206;-75
2021/04/04 09:50:20;;;;;;;17.67;9.93;;;16.50;99.90;;;;;;5041077;28;20306;-75
2021/04/04 09:52:48;;;;;;;19.02;9.80;;;16.20;99.90;;;;;;5041771;28;20220;-76
2021/04/04 09:55:17;;;;;;;17.15;9.13;;;16.40;99.90;;;;;;5043120;28;20231;-75
2021/04/04 09:57:46;;;;;;;17.60;9.35;;;17.40;99.90;;;;;;5045344;28;20620;-75
2021/04/04 10:00:22;;;;;;;16.75;9.43;;;17.10;99.90;;;;;;5042157;28;20228;-75
2021/04/04 10:02:51;;;;;;;17.33;9.52;;;17.50;99.90;;;;;;5040361;28;20583;-73
2021/04/04 10:05:33;;;;;;;16.90;9.52;;;17.50;99.90;;;;;;5047808;28;20234;-76
2021/04/04 10:08:11;;;;;;;20.20;9.35;;;17.00;99.90;;;;;;5047268;28;20215;-75
2021/04/04 10:10:39;;;;;;;14.02;9.10;;;16.80;99.90;;;;;;5044493;28;20282;-76
2021/04/04 10:13:06;;;;;;;14.95;9.27;;;17.40;99.90;;;;;;5040152;28;20306;-76
2021/04/04 10:15:40;;;;;;;18.45;9.68;;;16.60;99.90;;;;;;5042237;28;20766;-75
2021/04/04 10:18:06;;;;;;;19.23;9.70;;;17.00;99.90;;;;;;5038043;28;20282;-76
2021/04/04 10:20:35;;;;;;;17.08;8.80;;;16.10;99.90;;;;;;5040387;28;20208;-77
2021/04/04 10:23:02;;;;;;;15.05;8.60;;;17.20;99.90;;;;;;5048489;28;20279;-75
2021/04/04 10:25:30;;;;;;;16.52;8.60;;;17.60;99.90;;;;;;5042944;28;20330;-76
2021/04/04 10:28:02;;;;;;;13.82;8.15;;;18.50;99.90;;;;;;5046974;28;20291;-76
2021/04/04 10:30:30;;;;;;;15.65;8.43;;;18.50;99.90;;;;;;5045118;28;20304;-76
2021/04/04 10:33:15;;;;;;;12.35;7.80;;;17.40;99.90;;;;;;5045865;28;20260;-76
2021/04/04 10:35:42;;;;;;;15.52;7.82;;;18.90;99.90;;;;;;5045016;28;20242;-76
2021/04/04 10:38:11;;;;;;;15.30;8.15;;;18.30;99.90;;;;;;5044498;28;20291;-76
2021/04/04 10:40:46;;;;;;;14.68;8.48;;;17.50;99.90;;;;;;5045865;28;20282;-76
2021/04/04 10:43:15;;;;;;;14.88;8.48;;;17.90;99.90;;;;;;5048458;28;20489;-76
2021/04/04 10:45:58;;;;;;;14.68;8.30;;;18.40;99.90;;;;;;5042130;28;20278;-76
2021/04/04 10:48:25;;;;;;;17.90;7.95;;;18.20;99.90;;;;;;5045841;28;20295;-76
2021/04/04 10:50:51;;;;;;;14.18;7.80;;;18.50;99.90;;;;;;5043097;28;20655;-77
2021/04/04 10:53:19;;;;;;;16.38;8.13;;;17.30;99.90;;;;;;5042883;28;20223;-75
2021/04/04 10:55:47;;;;;;;13.30;7.18;;;18.60;99.90;;;;;;5043092;28;20559;-75
2021/04/04 10:58:14;;;;;;;12.23;7.25;;;17.90;99.90;;;;;;5040057;28;20290;-76
2021/04/04 11:00:43;;;;;;;15.43;7.93;;;18.50;99.90;;;;;;5046885;28;20253;-77
2021/04/04 11:03:09;;;;;;;10.95;7.13;;;18.80;99.90;;;;;;5042320;28;20236;-77
2021/04/04 11:05:37;;;;;;;12.57;7.47;;;18.50;99.90;;;;;;5038858;28;20651;-75
2021/04/04 11:08:05;;;;;;;15.93;8.00;;;18.20;99.90;;;;;;5041682;28;20206;-75
2021/04/04 11:10:31;;;;;;;15.43;8.40;;;18.30;99.90;;;;;;5043409;28;20196;-75
2021/04/04 11:13:00;;;;;;;17.90;8.15;;;17.50;99.90;;;;;;5044368;28;20243;-75
2021/04/04 11:15:29;;;;;;;16.77;8.55;;;17.70;99.90;;;;;;5040076;28;20200;-76
2021/04/04 11:17:56;;;;;;;13.05;7.38;;;18.00;99.90;;;;;;5045437;28;20353;-75
2021/04/04 11:20:23;;;;;;;15.73;8.82;;;17.90;99.90;;;;;;5047161;28;20202;-75
2021/04/04 11:22:51;;;;;;;17.00;9.18;;;18.00;99.90;;;;;;5038713;28;20274;-75
2021/04/04 11:25:18;;;;;;;13.70;8.93;;;17.60;99.90;;;;;;5048638;28;20290;-76
2021/04/04 11:27:46;;;;;;;15.30;8.98;;;18.00;99.90;;;;;;5042390;28;20655;-77
2021/04/04 11:30:16;;;;;;;15.80;8.65;;;18.80;99.90;;;;;;5045885;28;20192;-77
2021/04/04 11:32:48;;;;;;;13.75;8.77;;;18.30;99.90;;;;;;5045221;28;20387;-78
2021/04/04 11:35:15;;;;;;;17.52;9.02;;;18.70;99.90;;;;;;5039529;28;20204;-78
2021/04/04 11:37:45;;;;;;;16.15;8.65;;;18.00;99.90;;;;;;5035277;28;20771;-78
2021/04/04 11:40:23;;;;;;;14.98;8.52;;;18.30;99.90;;;;;;5045675;28;20299;-79
2021/04/04 11:42:52;;;;;;;13.77;8.63;;;19.20;99.90;;;;;;5047305;28;20249;-79
2021/04/04 11:45:36;;;;;;;17.83;9.32;;;19.20;99.90;;;;;;5048384;28;20204;-79
2021/04/04 11:48:28;;;;;;;19.00;9.93;;;18.50;99.90;;;;;;5039435;28;20230;-79
2021/04/04 11:50:54;;;;;;;14.35;8.63;;;19.40;99.90;;;;;;5045322;28;20235;-79
2021/04/04 11:53:41;;;;;;;16.13;8.77;;;19.10;99.90;;;;;;5040453;28;20644;-79
2021/04/04 11:56:08;;;;;;;19.58;9.07;;;18.70;99.90;;;;;;5038841;28;20204;-79
2021/04/04 11:58:34;;;;;;;14.40;8.88;;;19.90;99.90;;;;;;5044499;28;20227;-79
2021/04/04 12:01:02;;;;;;;14.70;9.70;;;19.80;99.90;;;;;;5040216;28;20208;-78
2021/04/04 12:03:28;;;;;;;14.15;9.15;;;19.70;99.90;;;;;;5034372;28;20283;-79
2021/04/04 12:05:55;;;;;;;18.17;9.82;;;20.50;99.90;;;;;;5041424;28;20192;-79
2021/04/04 12:08:27;;;;;;;17.67;10.05;;;19.60;99.90;;;;;;5045342;28;20298;-78
2021/04/04 12:10:55;;;;;;;14.25;9.50;;;19.60;99.80;;;;;;5045590;28;20291;-78
2021/04/04 12:13:22;;;;;;;15.48;9.15;;;18.60;99.90;;;;;;5048193;28;20238;-77
2021/04/04 12:15:48;;;;;;;13.95;9.02;;;18.30;99.90;;;;;;5044244;28;20297;-77
2021/04/04 12:18:16;;;;;;;15.45;8.40;;;18.80;99.90;;;;;;5046072;28;20228;-75
2021/04/04 12:20:42;;;;;;;15.00;9.30;;;19.20;99.90;;;;;;5048323;28;20200;-76
2021/04/04 12:23:10;;;;;;;18.38;8.65;;;18.40;99.90;;;;;;5042730;28;20276;-76
2021/04/04 12:25:37;;;;;;;13.38;8.73;;;19.20;99.90;;;;;;5050719;28;20219;-77
2021/04/04 12:28:03;;;;;;;14.40;8.95;;;19.90;99.90;;;;;;5043191;28;20695;-77
2021/04/04 12:30:32;;;;;;;15.02;8.68;;;19.20;99.30;;;;;;5047391;28;20234;-76
2021/04/04 12:33:04;;;;;;;20.45;10.05;;;19.40;99.90;;;;;;5045968;28;20235;-76
2021/04/04 12:35:32;;;;;;;13.68;8.13;;;20.10;99.90;;;;;;5043759;28;20207;-78
2021/04/04 12:38:00;;;;;;;16.85;8.50;;;19.70;99.90;;;;;;5041380;28;20227;-77
2021/04/04 12:40:30;;;;;;;16.48;9.02;;;19.20;99.90;;;;;;5057344;28;20207;-77
2021/04/04 12:42:59;;;;;;;14.98;8.50;;;19.10;99.90;;;;;;5066389;28;20261;-78
2021/04/04 12:45:31;;;;;;;15.48;8.77;;;19.70;99.90;;;;;;5045876;28;20665;-77
2021/04/04 12:47:57;;;;;;;15.98;9.50;;;19.40;99.90;;;;;;5041870;28;20201;-77
2021/04/04 12:50:23;;;;;;;15.40;8.50;;;19.20;99.90;;;;;;5048435;28;20327;-77
2021/04/04 12:52:53;;;;;;;14.80;8.65;;;19.50;99.90;;;;;;5053733;28;20230;-77
2021/04/04 12:55:24;;;;;;;16.60;9.10;;;18.70;99.90;;;;;;5054204;28;20568;-77
2021/04/04 12:57:55;;;;;;;16.45;9.02;;;18.00;99.90;;;;;;5052171;28;20278;-77
2021/04/04 13:00:23;;;;;;;14.48;8.48;;;17.80;99.90;;;;;;5048199;28;20295;-77
2021/04/04 13:02:58;;;;;;;14.90;8.00;;;18.40;99.90;;;;;;5039896;28;20235;-77